sensor_id;sensor_type;location;lat;lon;timestamp;temperature;humidity
6333;DHT22;3199;49.102;8.856;2023-12-29T00:01:14;9.70;99.90
6333;DHT22;3199;49.102;8.856;2023-12-29T00:03:39;9.70;99.90
6333;DHT22;3199;49.102;8.856;2023-12-29T00:06:05;9.70;99.90
6333;DHT22;3199;49.102;8.856;2023-12-29T00:08:31;9.80;99.90
6333;DHT22;3199;49.102;8.856;2023-12-29T00:10:57;9.80;99.90
6333;DHT22;3199;49.102;8.856;2023-12-29T00:13:22;9.80;99.90
6333;DHT22;3199;49.102;8.856;2023-12-29T00:15:52;9.80;99.90
6333;DHT22;3199;49.102;8.856;2023-12-29T00:18:18;9.80;99.90
6333;DHT22;3199;49.102;8.856;2023-12-29T00:20:44;9.90;99.90
6333;DHT22;3199;49.102;8.856;2023-12-29T00:23:09;9.80;99.90
6333;DHT22;3199;49.102;8.856;2023-12-29T00:25:38;9.90;99.90
6333;DHT22;3199;49.102;8.856;2023-12-29T00:28:04;9.90;99.90
6333;DHT22;3199;49.102;8.856;2023-12-29T00:30:30;9.90;99.90
6333;DHT22;3199;49.102;8.856;2023-12-29T00:32:56;9.90;99.90
6333;DHT22;3199;49.102;8.856;2023-12-29T00:35:21;9.90;99.90
6333;DHT22;3199;49.102;8.856;2023-12-29T00:37:47;9.90;99.90
6333;DHT22;3199;49.102;8.856;2023-12-29T00:40:13;9.80;99.90
6333;DHT22;3199;49.102;8.856;2023-12-29T00:42:38;9.80;99.90
6333;DHT22;3199;49.102;8.856;2023-12-29T00:45:05;9.80;99.90
6333;DHT22;3199;49.102;8.856;2023-12-29T00:47:31;9.70;99.90
6333;DHT22;3199;49.102;8.856;2023-12-29T00:49:56;9.70;99.90
6333;DHT22;3199;49.102;8.856;2023-12-29T00:52:22;9.70;99.90
6333;DHT22;3199;49.102;8.856;2023-12-29T00:54:47;9.70;99.90
6333;DHT22;3199;49.102;8.856;2023-12-29T00:57:13;9.70;99.90
6333;DHT22;3199;49.102;8.856;2023-12-29T00:59:38;9.70;99.90
6333;DHT22;3199;49.102;8.856;2023-12-29T01:02:05;9.70;99.90
6333;DHT22;3199;49.102;8.856;2023-12-29T01:04:31;9.70;99.90
6333;DHT22;3199;49.102;8.856;2023-12-29T01:06:56;9.70;99.90
6333;DHT22;3199;49.102;8.856;2023-12-29T01:09:22;9.70;99.90
6333;DHT22;3199;49.102;8.856;2023-12-29T01:11:47;9.60;99.90
6333;DHT22;3199;49.102;8.856;2023-12-29T01:14:13;9.60;99.90
6333;DHT22;3199;49.102;8.856;2023-12-29T01:16:39;9.60;99.90
6333;DHT22;3199;49.102;8.856;2023-12-29T01:19:05;9.60;99.90
6333;DHT22;3199;49.102;8.856;2023-12-29T01:21:30;9.60;99.90
6333;DHT22;3199;49.102;8.856;2023-12-29T01:23:59;9.60;99.90
6333;DHT22;3199;49.102;8.856;2023-12-29T01:26:26;9.60;99.90
6333;DHT22;3199;49.102;8.856;2023-12-29T01:28:51;9.60;99.90
6333;DHT22;3199;49.102;8.856;2023-12-29T01:31:17;9.60;99.90
6333;DHT22;3199;49.102;8.856;2023-12-29T01:33:43;9.60;99.90
6333;DHT22;3199;49.102;8.856;2023-12-29T01:36:08;9.60;99.90
6333;DHT22;3199;49.102;8.856;2023-12-29T01:38:34;9.60;99.90
6333;DHT22;3199;49.102;8.856;2023-12-29T01:40:59;9.60;99.90
6333;DHT22;3199;49.102;8.856;2023-12-29T01:43:25;9.60;99.90
6333;DHT22;3199;49.102;8.856;2023-12-29T01:45:50;9.60;99.90
6333;DHT22;3199;49.102;8.856;2023-12-29T01:48:16;9.70;99.90
6333;DHT22;3199;49.102;8.856;2023-12-29T01:50:42;9.60;99.90
6333;DHT22;3199;49.102;8.856;2023-12-29T01:53:08;9.60;99.90
6333;DHT22;3199;49.102;8.856;2023-12-29T01:55:34;9.60;99.90
6333;DHT22;3199;49.102;8.856;2023-12-29T01:58:00;9.60;99.90
6333;DHT22;3199;49.102;8.856;2023-12-29T02:00:27;9.60;99.90
6333;DHT22;3199;49.102;8.856;2023-12-29T02:02:53;9.60;99.90
6333;DHT22;3199;49.102;8.856;2023-12-29T02:05:20;9.60;99.90
6333;DHT22;3199;49.102;8.856;2023-12-29T02:07:47;9.60;99.90
6333;DHT22;3199;49.102;8.856;2023-12-29T02:10:13;9.60;99.90
6333;DHT22;3199;49.102;8.856;2023-12-29T02:12:41;9.60;99.90
6333;DHT22;3199;49.102;8.856;2023-12-29T02:15:07;9.60;99.90
6333;DHT22;3199;49.102;8.856;2023-12-29T02:17:41;9.60;99.90
6333;DHT22;3199;49.102;8.856;2023-12-29T02:20:10;9.60;99.90
6333;DHT22;3199;49.102;8.856;2023-12-29T02:22:36;9.60;99.90
6333;DHT22;3199;49.102;8.856;2023-12-29T02:25:02;9.60;99.90
6333;DHT22;3199;49.102;8.856;2023-12-29T02:27:45;9.60;99.90
6333;DHT22;3199;49.102;8.856;2023-12-29T02:32:41;9.60;99.90
6333;DHT22;3199;49.102;8.856;2023-12-29T02:35:09;9.60;99.90
6333;DHT22;3199;49.102;8.856;2023-12-29T02:37:37;9.60;99.90
6333;DHT22;3199;49.102;8.856;2023-12-29T02:40:04;9.60;99.90
6333;DHT22;3199;49.102;8.856;2023-12-29T02:42:30;9.60;99.90
6333;DHT22;3199;49.102;8.856;2023-12-29T02:44:56;9.60;99.90
6333;DHT22;3199;49.102;8.856;2023-12-29T02:47:21;9.60;99.90
6333;DHT22;3199;49.102;8.856;2023-12-29T02:49:47;9.50;99.90
6333;DHT22;3199;49.102;8.856;2023-12-29T02:52:14;9.60;99.90
6333;DHT22;3199;49.102;8.856;2023-12-29T02:54:40;9.60;99.90
6333;DHT22;3199;49.102;8.856;2023-12-29T02:57:05;9.60;99.90
6333;DHT22;3199;49.102;8.856;2023-12-29T02:59:31;9.60;99.90
6333;DHT22;3199;49.102;8.856;2023-12-29T03:01:56;9.60;99.90
6333;DHT22;3199;49.102;8.856;2023-12-29T03:04:22;9.60;99.90
6333;DHT22;3199;49.102;8.856;2023-12-29T03:06:47;9.60;99.90
6333;DHT22;3199;49.102;8.856;2023-12-29T03:09:13;9.70;99.90
6333;DHT22;3199;49.102;8.856;2023-12-29T03:11:38;9.70;99.90
6333;DHT22;3199;49.102;8.856;2023-12-29T03:14:04;9.70;99.90
6333;DHT22;3199;49.102;8.856;2023-12-29T03:16:29;9.70;99.90
6333;DHT22;3199;49.102;8.856;2023-12-29T03:18:55;9.70;99.90
6333;DHT22;3199;49.102;8.856;2023-12-29T03:21:21;9.70;99.90
6333;DHT22;3199;49.102;8.856;2023-12-29T03:23:47;9.70;99.90
6333;DHT22;3199;49.102;8.856;2023-12-29T03:26:12;9.70;99.90
6333;DHT22;3199;49.102;8.856;2023-12-29T03:28:38;9.70;99.90
6333;DHT22;3199;49.102;8.856;2023-12-29T03:31:03;9.80;99.90
6333;DHT22;3199;49.102;8.856;2023-12-29T03:33:30;9.80;99.90
6333;DHT22;3199;49.102;8.856;2023-12-29T03:35:55;9.80;99.90
6333;DHT22;3199;49.102;8.856;2023-12-29T03:38:21;9.80;99.90
6333;DHT22;3199;49.102;8.856;2023-12-29T03:40:46;9.80;99.90
6333;DHT22;3199;49.102;8.856;2023-12-29T03:43:12;9.80;99.90
6333;DHT22;3199;49.102;8.856;2023-12-29T03:45:37;9.80;99.90
6333;DHT22;3199;49.102;8.856;2023-12-29T03:48:03;9.80;99.90
6333;DHT22;3199;49.102;8.856;2023-12-29T03:50:29;9.80;99.90
6333;DHT22;3199;49.102;8.856;2023-12-29T03:52:54;9.80;99.90
6333;DHT22;3199;49.102;8.856;2023-12-29T03:55:20;9.80;99.90
6333;DHT22;3199;49.102;8.856;2023-12-29T03:57:45;9.80;99.90
6333;DHT22;3199;49.102;8.856;2023-12-29T04:00:12;9.80;99.90
6333;DHT22;3199;49.102;8.856;2023-12-29T04:02:38;9.80;99.90
6333;DHT22;3199;49.102;8.856;2023-12-29T04:05:05;9.80;99.90
6333;DHT22;3199;49.102;8.856;2023-12-29T04:07:31;9.80;99.90
6333;DHT22;3199;49.102;8.856;2023-12-29T04:09:56;9.80;99.90
6333;DHT22;3199;49.102;8.856;2023-12-29T04:12:22;9.80;99.90
6333;DHT22;3199;49.102;8.856;2023-12-29T04:14:47;9.90;99.90
6333;DHT22;3199;49.102;8.856;2023-12-29T04:17:13;9.90;99.90
6333;DHT22;3199;49.102;8.856;2023-12-29T04:19:40;9.90;99.90
6333;DHT22;3199;49.102;8.856;2023-12-29T04:22:07;9.90;99.90
6333;DHT22;3199;49.102;8.856;2023-12-29T04:24:33;9.90;99.90
6333;DHT22;3199;49.102;8.856;2023-12-29T04:26:58;9.90;99.90
6333;DHT22;3199;49.102;8.856;2023-12-29T04:29:24;9.80;99.90
6333;DHT22;3199;49.102;8.856;2023-12-29T04:31:49;9.80;99.90
6333;DHT22;3199;49.102;8.856;2023-12-29T04:34:15;9.80;99.90
6333;DHT22;3199;49.102;8.856;2023-12-29T04:36:41;9.80;99.90
6333;DHT22;3199;49.102;8.856;2023-12-29T04:39:06;9.80;99.90
6333;DHT22;3199;49.102;8.856;2023-12-29T04:41:34;9.80;99.90
6333;DHT22;3199;49.102;8.856;2023-12-29T04:44:00;9.80;99.90
6333;DHT22;3199;49.102;8.856;2023-12-29T04:46:26;9.80;99.90
6333;DHT22;3199;49.102;8.856;2023-12-29T04:48:51;9.80;99.90
6333;DHT22;3199;49.102;8.856;2023-12-29T04:51:17;9.80;99.90
6333;DHT22;3199;49.102;8.856;2023-12-29T04:53:42;9.80;99.90
6333;DHT22;3199;49.102;8.856;2023-12-29T04:56:08;9.80;99.90
6333;DHT22;3199;49.102;8.856;2023-12-29T04:58:33;9.80;99.90
6333;DHT22;3199;49.102;8.856;2023-12-29T05:00:59;9.80;99.90
6333;DHT22;3199;49.102;8.856;2023-12-29T05:03:25;9.80;99.90
6333;DHT22;3199;49.102;8.856;2023-12-29T05:05:50;9.80;99.90
6333;DHT22;3199;49.102;8.856;2023-12-29T05:08:16;9.70;99.90
6333;DHT22;3199;49.102;8.856;2023-12-29T05:10:41;9.70;99.90
6333;DHT22;3199;49.102;8.856;2023-12-29T05:13:07;9.70;99.90
6333;DHT22;3199;49.102;8.856;2023-12-29T05:15:32;9.70;99.90
6333;DHT22;3199;49.102;8.856;2023-12-29T05:17:58;9.70;99.90
6333;DHT22;3199;49.102;8.856;2023-12-29T05:20:23;9.60;99.90
6333;DHT22;3199;49.102;8.856;2023-12-29T05:22:49;9.60;99.90
6333;DHT22;3199;49.102;8.856;2023-12-29T05:25:14;9.60;99.90
6333;DHT22;3199;49.102;8.856;2023-12-29T05:27:40;9.60;99.90
6333;DHT22;3199;49.102;8.856;2023-12-29T05:30:06;9.60;99.90
6333;DHT22;3199;49.102;8.856;2023-12-29T05:32:31;9.50;99.90
6333;DHT22;3199;49.102;8.856;2023-12-29T05:34:57;9.50;99.90
6333;DHT22;3199;49.102;8.856;2023-12-29T05:37:22;9.40;99.90
6333;DHT22;3199;49.102;8.856;2023-12-29T05:39:48;9.40;99.90
6333;DHT22;3199;49.102;8.856;2023-12-29T05:42:13;9.40;99.90
6333;DHT22;3199;49.102;8.856;2023-12-29T05:44:39;9.50;99.90
6333;DHT22;3199;49.102;8.856;2023-12-29T05:47:05;9.40;99.90
6333;DHT22;3199;49.102;8.856;2023-12-29T05:49:30;9.30;99.90
6333;DHT22;3199;49.102;8.856;2023-12-29T05:51:57;9.30;99.90
6333;DHT22;3199;49.102;8.856;2023-12-29T05:54:23;9.30;99.90
6333;DHT22;3199;49.102;8.856;2023-12-29T05:56:49;9.30;99.90
6333;DHT22;3199;49.102;8.856;2023-12-29T05:59:14;9.30;99.90
6333;DHT22;3199;49.102;8.856;2023-12-29T06:01:40;9.30;99.90
6333;DHT22;3199;49.102;8.856;2023-12-29T06:04:05;9.20;99.90
6333;DHT22;3199;49.102;8.856;2023-12-29T06:06:31;9.20;99.90
6333;DHT22;3199;49.102;8.856;2023-12-29T06:08:56;9.20;99.90
6333;DHT22;3199;49.102;8.856;2023-12-29T06:11:22;9.20;99.90
6333;DHT22;3199;49.102;8.856;2023-12-29T06:13:47;9.20;99.90
6333;DHT22;3199;49.102;8.856;2023-12-29T06:16:20;9.20;99.90
6333;DHT22;3199;49.102;8.856;2023-12-29T06:18:46;9.20;99.90
6333;DHT22;3199;49.102;8.856;2023-12-29T06:21:12;9.10;99.90
6333;DHT22;3199;49.102;8.856;2023-12-29T06:23:38;9.10;99.90
6333;DHT22;3199;49.102;8.856;2023-12-29T06:26:03;9.10;99.90
6333;DHT22;3199;49.102;8.856;2023-12-29T06:28:29;9.10;99.90
6333;DHT22;3199;49.102;8.856;2023-12-29T06:30:54;9.10;99.90
6333;DHT22;3199;49.102;8.856;2023-12-29T06:33:20;9.10;99.90
6333;DHT22;3199;49.102;8.856;2023-12-29T06:35:47;9.10;99.90
6333;DHT22;3199;49.102;8.856;2023-12-29T06:38:13;9.10;99.90
6333;DHT22;3199;49.102;8.856;2023-12-29T06:40:38;9.10;99.90
6333;DHT22;3199;49.102;8.856;2023-12-29T06:43:04;9.20;99.90
6333;DHT22;3199;49.102;8.856;2023-12-29T06:45:30;9.20;99.90
6333;DHT22;3199;49.102;8.856;2023-12-29T06:47:55;9.20;99.90
6333;DHT22;3199;49.102;8.856;2023-12-29T06:50:21;9.30;99.90
6333;DHT22;3199;49.102;8.856;2023-12-29T06:52:46;9.30;99.90
6333;DHT22;3199;49.102;8.856;2023-12-29T06:55:12;9.40;99.90
6333;DHT22;3199;49.102;8.856;2023-12-29T06:57:37;9.40;99.90
6333;DHT22;3199;49.102;8.856;2023-12-29T07:00:04;9.40;99.90
6333;DHT22;3199;49.102;8.856;2023-12-29T07:02:29;9.40;99.90
6333;DHT22;3199;49.102;8.856;2023-12-29T07:04:56;9.40;99.90
6333;DHT22;3199;49.102;8.856;2023-12-29T07:07:21;9.40;99.90
6333;DHT22;3199;49.102;8.856;2023-12-29T07:09:47;9.40;99.90
6333;DHT22;3199;49.102;8.856;2023-12-29T07:12:12;9.40;99.90
6333;DHT22;3199;49.102;8.856;2023-12-29T07:14:38;9.40;99.90
6333;DHT22;3199;49.102;8.856;2023-12-29T07:17:05;9.40;99.90
6333;DHT22;3199;49.102;8.856;2023-12-29T07:19:31;9.40;99.90
6333;DHT22;3199;49.102;8.856;2023-12-29T07:22:03;9.40;99.90
6333;DHT22;3199;49.102;8.856;2023-12-29T07:24:29;9.40;99.90
6333;DHT22;3199;49.102;8.856;2023-12-29T07:26:54;9.40;99.90
6333;DHT22;3199;49.102;8.856;2023-12-29T07:29:20;9.40;99.90
6333;DHT22;3199;49.102;8.856;2023-12-29T07:31:45;9.40;99.90
6333;DHT22;3199;49.102;8.856;2023-12-29T07:34:11;9.40;99.90
6333;DHT22;3199;49.102;8.856;2023-12-29T07:36:39;9.40;99.90
6333;DHT22;3199;49.102;8.856;2023-12-29T07:39:06;9.40;99.90
6333;DHT22;3199;49.102;8.856;2023-12-29T07:41:31;9.40;99.90
6333;DHT22;3199;49.102;8.856;2023-12-29T07:43:57;9.40;99.90
6333;DHT22;3199;49.102;8.856;2023-12-29T07:46:26;9.50;99.90
6333;DHT22;3199;49.102;8.856;2023-12-29T07:48:52;9.50;99.90
6333;DHT22;3199;49.102;8.856;2023-12-29T07:51:18;9.50;99.90
6333;DHT22;3199;49.102;8.856;2023-12-29T07:53:43;9.60;99.90
6333;DHT22;3199;49.102;8.856;2023-12-29T07:56:10;9.60;99.90
6333;DHT22;3199;49.102;8.856;2023-12-29T07:58:36;9.60;99.90
6333;DHT22;3199;49.102;8.856;2023-12-29T08:01:01;9.70;99.90
6333;DHT22;3199;49.102;8.856;2023-12-29T08:03:27;9.70;99.90
6333;DHT22;3199;49.102;8.856;2023-12-29T08:05:52;9.70;99.90
6333;DHT22;3199;49.102;8.856;2023-12-29T08:08:18;9.70;99.90
6333;DHT22;3199;49.102;8.856;2023-12-29T08:10:43;9.70;99.90
6333;DHT22;3199;49.102;8.856;2023-12-29T08:13:09;9.70;99.90
6333;DHT22;3199;49.102;8.856;2023-12-29T08:15:35;9.70;99.90
6333;DHT22;3199;49.102;8.856;2023-12-29T08:18:01;9.70;99.90
6333;DHT22;3199;49.102;8.856;2023-12-29T08:20:26;9.70;99.90
6333;DHT22;3199;49.102;8.856;2023-12-29T08:22:52;9.70;99.90
6333;DHT22;3199;49.102;8.856;2023-12-29T08:25:17;9.70;99.90
6333;DHT22;3199;49.102;8.856;2023-12-29T08:27:43;9.70;99.90
6333;DHT22;3199;49.102;8.856;2023-12-29T08:30:09;9.70;99.90
6333;DHT22;3199;49.102;8.856;2023-12-29T08:32:34;9.70;99.90
6333;DHT22;3199;49.102;8.856;2023-12-29T08:35:00;9.70;99.90
6333;DHT22;3199;49.102;8.856;2023-12-29T08:37:25;9.80;99.90
6333;DHT22;3199;49.102;8.856;2023-12-29T08:39:51;9.80;99.90
6333;DHT22;3199;49.102;8.856;2023-12-29T08:42:16;9.80;99.90
6333;DHT22;3199;49.102;8.856;2023-12-29T08:44:42;9.80;99.90
6333;DHT22;3199;49.102;8.856;2023-12-29T08:47:07;9.80;99.90
6333;DHT22;3199;49.102;8.856;2023-12-29T08:49:37;9.90;99.90
6333;DHT22;3199;49.102;8.856;2023-12-29T08:52:04;10.00;99.90
6333;DHT22;3199;49.102;8.856;2023-12-29T08:54:29;10.10;99.90
6333;DHT22;3199;49.102;8.856;2023-12-29T08:56:55;10.10;99.90
6333;DHT22;3199;49.102;8.856;2023-12-29T08:59:21;10.20;99.90
6333;DHT22;3199;49.102;8.856;2023-12-29T09:01:46;10.30;99.90
6333;DHT22;3199;49.102;8.856;2023-12-29T09:04:12;10.30;99.90
6333;DHT22;3199;49.102;8.856;2023-12-29T09:06:38;10.30;99.90
6333;DHT22;3199;49.102;8.856;2023-12-29T09:09:04;10.40;99.90
6333;DHT22;3199;49.102;8.856;2023-12-29T09:11:29;10.30;99.90
6333;DHT22;3199;49.102;8.856;2023-12-29T09:13:55;10.40;99.90
6333;DHT22;3199;49.102;8.856;2023-12-29T09:16:20;10.40;99.90
6333;DHT22;3199;49.102;8.856;2023-12-29T09:18:46;10.50;99.90
6333;DHT22;3199;49.102;8.856;2023-12-29T09:21:11;10.50;99.90
6333;DHT22;3199;49.102;8.856;2023-12-29T09:23:37;10.60;99.90
6333;DHT22;3199;49.102;8.856;2023-12-29T09:26:04;10.70;99.90
6333;DHT22;3199;49.102;8.856;2023-12-29T09:28:32;10.70;99.90
6333;DHT22;3199;49.102;8.856;2023-12-29T09:30:59;10.80;99.90
6333;DHT22;3199;49.102;8.856;2023-12-29T09:33:26;10.80;99.90
6333;DHT22;3199;49.102;8.856;2023-12-29T09:35:51;10.90;99.90
6333;DHT22;3199;49.102;8.856;2023-12-29T09:38:18;10.90;99.90
6333;DHT22;3199;49.102;8.856;2023-12-29T09:40:44;11.00;99.90
6333;DHT22;3199;49.102;8.856;2023-12-29T09:43:10;11.00;99.90
6333;DHT22;3199;49.102;8.856;2023-12-29T09:45:37;11.00;99.90
6333;DHT22;3199;49.102;8.856;2023-12-29T09:48:11;11.10;99.90
6333;DHT22;3199;49.102;8.856;2023-12-29T09:50:39;11.10;99.90
6333;DHT22;3199;49.102;8.856;2023-12-29T09:53:05;11.10;99.90
6333;DHT22;3199;49.102;8.856;2023-12-29T09:55:32;11.10;99.90
6333;DHT22;3199;49.102;8.856;2023-12-29T09:57:59;11.20;99.90
6333;DHT22;3199;49.102;8.856;2023-12-29T10:00:25;11.30;99.90
6333;DHT22;3199;49.102;8.856;2023-12-29T10:02:51;11.40;99.90
6333;DHT22;3199;49.102;8.856;2023-12-29T10:05:20;11.40;99.90
6333;DHT22;3199;49.102;8.856;2023-12-29T10:07:47;11.50;99.90
6333;DHT22;3199;49.102;8.856;2023-12-29T10:10:17;11.60;99.90
6333;DHT22;3199;49.102;8.856;2023-12-29T10:12:44;11.70;99.90
6333;DHT22;3199;49.102;8.856;2023-12-29T10:17:52;11.90;99.90
6333;DHT22;3199;49.102;8.856;2023-12-29T10:20:44;12.10;99.90
6333;DHT22;3199;49.102;8.856;2023-12-29T10:23:13;12.20;99.90
6333;DHT22;3199;49.102;8.856;2023-12-29T10:25:42;12.20;99.90
6333;DHT22;3199;49.102;8.856;2023-12-29T10:28:09;12.20;99.90
6333;DHT22;3199;49.102;8.856;2023-12-29T10:30:35;12.00;99.90
6333;DHT22;3199;49.102;8.856;2023-12-29T10:33:04;12.10;99.90
6333;DHT22;3199;49.102;8.856;2023-12-29T10:35:30;12.10;99.90
6333;DHT22;3199;49.102;8.856;2023-12-29T10:38:08;12.10;99.90
6333;DHT22;3199;49.102;8.856;2023-12-29T10:40:35;12.00;99.90
6333;DHT22;3199;49.102;8.856;2023-12-29T10:43:00;12.00;99.90
6333;DHT22;3199;49.102;8.856;2023-12-29T10:45:32;12.00;99.90
6333;DHT22;3199;49.102;8.856;2023-12-29T10:47:59;12.10;99.90
6333;DHT22;3199;49.102;8.856;2023-12-29T10:50:25;12.20;99.90
6333;DHT22;3199;49.102;8.856;2023-12-29T10:53:10;12.30;99.90
6333;DHT22;3199;49.102;8.856;2023-12-29T10:55:35;12.30;99.90
6333;DHT22;3199;49.102;8.856;2023-12-29T10:58:01;12.30;99.90
6333;DHT22;3199;49.102;8.856;2023-12-29T11:00:30;12.30;99.90
6333;DHT22;3199;49.102;8.856;2023-12-29T11:02:56;12.30;99.90
6333;DHT22;3199;49.102;8.856;2023-12-29T11:05:25;12.30;99.90
6333;DHT22;3199;49.102;8.856;2023-12-29T11:07:51;12.40;99.90
6333;DHT22;3199;49.102;8.856;2023-12-29T11:10:20;12.40;99.90
6333;DHT22;3199;49.102;8.856;2023-12-29T11:12:47;12.60;99.90
6333;DHT22;3199;49.102;8.856;2023-12-29T11:15:14;12.70;99.90
6333;DHT22;3199;49.102;8.856;2023-12-29T11:17:41;12.70;99.90
6333;DHT22;3199;49.102;8.856;2023-12-29T11:20:14;12.70;99.90
6333;DHT22;3199;49.102;8.856;2023-12-29T11:22:42;12.80;99.90
6333;DHT22;3199;49.102;8.856;2023-12-29T11:25:08;12.80;99.90
6333;DHT22;3199;49.102;8.856;2023-12-29T11:27:35;12.80;99.90
6333;DHT22;3199;49.102;8.856;2023-12-29T11:30:02;12.70;99.90
6333;DHT22;3199;49.102;8.856;2023-12-29T11:32:43;12.70;99.90
6333;DHT22;3199;49.102;8.856;2023-12-29T11:35:21;12.70;99.90
6333;DHT22;3199;49.102;8.856;2023-12-29T11:38:03;12.70;99.90
6333;DHT22;3199;49.102;8.856;2023-12-29T11:40:42;12.70;99.90
6333;DHT22;3199;49.102;8.856;2023-12-29T11:43:14;12.70;99.90
6333;DHT22;3199;49.102;8.856;2023-12-29T11:45:40;12.80;99.90
6333;DHT22;3199;49.102;8.856;2023-12-29T11:48:06;12.70;99.90
6333;DHT22;3199;49.102;8.856;2023-12-29T11:50:36;12.80;99.90
6333;DHT22;3199;49.102;8.856;2023-12-29T11:53:03;12.80;99.90
6333;DHT22;3199;49.102;8.856;2023-12-29T11:55:31;12.80;99.90
6333;DHT22;3199;49.102;8.856;2023-12-29T11:57:58;12.90;99.90
6333;DHT22;3199;49.102;8.856;2023-12-29T12:00:43;12.90;99.90
6333;DHT22;3199;49.102;8.856;2023-12-29T12:03:16;13.00;99.90
6333;DHT22;3199;49.102;8.856;2023-12-29T12:05:49;13.00;99.90
6333;DHT22;3199;49.102;8.856;2023-12-29T12:08:31;13.00;99.90
6333;DHT22;3199;49.102;8.856;2023-12-29T12:13:47;12.70;99.90
6333;DHT22;3199;49.102;8.856;2023-12-29T12:19:10;12.50;99.90
6333;DHT22;3199;49.102;8.856;2023-12-29T12:21:37;12.50;99.90
6333;DHT22;3199;49.102;8.856;2023-12-29T12:24:04;12.40;99.90
6333;DHT22;3199;49.102;8.856;2023-12-29T12:26:31;12.30;99.90
6333;DHT22;3199;49.102;8.856;2023-12-29T12:28:57;12.30;99.90
6333;DHT22;3199;49.102;8.856;2023-12-29T12:31:23;12.20;99.90
6333;DHT22;3199;49.102;8.856;2023-12-29T12:33:55;12.10;99.90
6333;DHT22;3199;49.102;8.856;2023-12-29T12:36:21;12.10;99.90
6333;DHT22;3199;49.102;8.856;2023-12-29T12:38:54;12.00;99.90
6333;DHT22;3199;49.102;8.856;2023-12-29T12:41:23;12.00;99.90
6333;DHT22;3199;49.102;8.856;2023-12-29T12:44:10;12.00;99.90
6333;DHT22;3199;49.102;8.856;2023-12-29T12:46:41;12.00;99.90
6333;DHT22;3199;49.102;8.856;2023-12-29T12:49:08;12.00;99.90
6333;DHT22;3199;49.102;8.856;2023-12-29T12:51:33;12.00;99.90
6333;DHT22;3199;49.102;8.856;2023-12-29T12:53:59;12.00;99.90
6333;DHT22;3199;49.102;8.856;2023-12-29T12:56:25;12.00;99.90
6333;DHT22;3199;49.102;8.856;2023-12-29T12:58:55;12.00;99.90
6333;DHT22;3199;49.102;8.856;2023-12-29T13:01:22;11.90;99.90
6333;DHT22;3199;49.102;8.856;2023-12-29T13:03:47;11.90;99.90
6333;DHT22;3199;49.102;8.856;2023-12-29T13:06:13;11.90;99.90
6333;DHT22;3199;49.102;8.856;2023-12-29T13:08:39;11.90;99.90
6333;DHT22;3199;49.102;8.856;2023-12-29T13:11:05;11.90;99.90
6333;DHT22;3199;49.102;8.856;2023-12-29T13:13:41;11.90;99.90
6333;DHT22;3199;49.102;8.856;2023-12-29T13:16:10;11.90;99.90
6333;DHT22;3199;49.102;8.856;2023-12-29T13:18:36;12.00;99.90
6333;DHT22;3199;49.102;8.856;2023-12-29T13:21:02;12.00;99.90
6333;DHT22;3199;49.102;8.856;2023-12-29T13:23:28;12.00;99.90
6333;DHT22;3199;49.102;8.856;2023-12-29T13:25:58;12.00;99.90
6333;DHT22;3199;49.102;8.856;2023-12-29T13:28:25;12.00;99.90
6333;DHT22;3199;49.102;8.856;2023-12-29T13:30:51;12.00;99.90
6333;DHT22;3199;49.102;8.856;2023-12-29T13:33:34;12.00;99.90
6333;DHT22;3199;49.102;8.856;2023-12-29T13:36:12;12.00;99.90
6333;DHT22;3199;49.102;8.856;2023-12-29T13:38:49;11.90;99.90
6333;DHT22;3199;49.102;8.856;2023-12-29T13:41:17;11.90;99.90
6333;DHT22;3199;49.102;8.856;2023-12-29T13:43:45;11.90;99.90
6333;DHT22;3199;49.102;8.856;2023-12-29T13:46:12;11.90;99.90
6333;DHT22;3199;49.102;8.856;2023-12-29T13:48:40;11.90;99.90
6333;DHT22;3199;49.102;8.856;2023-12-29T13:51:06;11.90;99.90
6333;DHT22;3199;49.102;8.856;2023-12-29T13:53:32;11.90;99.90
6333;DHT22;3199;49.102;8.856;2023-12-29T13:56:10;11.90;99.90
6333;DHT22;3199;49.102;8.856;2023-12-29T13:58:36;11.90;99.90
6333;DHT22;3199;49.102;8.856;2023-12-29T14:01:06;11.90;99.90
6333;DHT22;3199;49.102;8.856;2023-12-29T14:03:42;11.90;99.90
6333;DHT22;3199;49.102;8.856;2023-12-29T14:06:12;11.90;99.90
6333;DHT22;3199;49.102;8.856;2023-12-29T14:08:40;11.90;99.90
6333;DHT22;3199;49.102;8.856;2023-12-29T14:11:07;11.90;99.90
6333;DHT22;3199;49.102;8.856;2023-12-29T14:13:34;12.00;99.90
6333;DHT22;3199;49.102;8.856;2023-12-29T14:15:59;12.00;99.90
6333;DHT22;3199;49.102;8.856;2023-12-29T14:21:30;12.00;99.90
6333;DHT22;3199;49.102;8.856;2023-12-29T14:29:20;11.90;99.90
6333;DHT22;3199;49.102;8.856;2023-12-29T14:31:46;11.90;99.90
6333;DHT22;3199;49.102;8.856;2023-12-29T14:34:13;11.90;99.90
6333;DHT22;3199;49.102;8.856;2023-12-29T14:36:40;11.80;99.90
6333;DHT22;3199;49.102;8.856;2023-12-29T14:39:07;11.80;99.90
6333;DHT22;3199;49.102;8.856;2023-12-29T14:41:33;11.80;99.90
6333;DHT22;3199;49.102;8.856;2023-12-29T14:43:59;11.70;99.90
6333;DHT22;3199;49.102;8.856;2023-12-29T14:46:25;11.70;99.90
6333;DHT22;3199;49.102;8.856;2023-12-29T14:48:52;11.70;99.90
6333;DHT22;3199;49.102;8.856;2023-12-29T14:51:18;11.60;99.90
6333;DHT22;3199;49.102;8.856;2023-12-29T14:53:48;11.60;99.90
6333;DHT22;3199;49.102;8.856;2023-12-29T14:56:15;11.60;99.90
6333;DHT22;3199;49.102;8.856;2023-12-29T14:58:40;11.50;99.90
6333;DHT22;3199;49.102;8.856;2023-12-29T15:01:07;11.50;99.90
6333;DHT22;3199;49.102;8.856;2023-12-29T15:03:33;11.50;99.90
6333;DHT22;3199;49.102;8.856;2023-12-29T15:05:59;11.40;99.90
6333;DHT22;3199;49.102;8.856;2023-12-29T15:08:24;11.40;99.90
6333;DHT22;3199;49.102;8.856;2023-12-29T15:10:50;11.40;99.90
6333;DHT22;3199;49.102;8.856;2023-12-29T15:13:16;11.40;99.90
6333;DHT22;3199;49.102;8.856;2023-12-29T15:15:42;11.30;99.90
6333;DHT22;3199;49.102;8.856;2023-12-29T15:18:07;11.30;99.90
6333;DHT22;3199;49.102;8.856;2023-12-29T15:20:33;11.30;99.90
6333;DHT22;3199;49.102;8.856;2023-12-29T15:22:59;11.20;99.90
6333;DHT22;3199;49.102;8.856;2023-12-29T15:25:26;11.20;99.90
6333;DHT22;3199;49.102;8.856;2023-12-29T15:27:52;11.10;99.90
6333;DHT22;3199;49.102;8.856;2023-12-29T15:30:18;11.00;99.90
6333;DHT22;3199;49.102;8.856;2023-12-29T15:32:44;11.00;99.90
6333;DHT22;3199;49.102;8.856;2023-12-29T15:35:10;10.90;99.90
6333;DHT22;3199;49.102;8.856;2023-12-29T15:37:35;10.90;99.90
6333;DHT22;3199;49.102;8.856;2023-12-29T15:40:01;10.90;99.90
6333;DHT22;3199;49.102;8.856;2023-12-29T15:42:27;10.80;99.90
6333;DHT22;3199;49.102;8.856;2023-12-29T15:44:53;10.80;99.90
6333;DHT22;3199;49.102;8.856;2023-12-29T15:47:18;10.80;99.90
6333;DHT22;3199;49.102;8.856;2023-12-29T15:49:44;10.90;99.90
6333;DHT22;3199;49.102;8.856;2023-12-29T15:52:09;10.80;99.90
6333;DHT22;3199;49.102;8.856;2023-12-29T15:54:35;10.80;99.90
6333;DHT22;3199;49.102;8.856;2023-12-29T15:57:00;10.80;99.90
6333;DHT22;3199;49.102;8.856;2023-12-29T15:59:31;10.80;99.90
6333;DHT22;3199;49.102;8.856;2023-12-29T16:01:56;10.80;99.90
6333;DHT22;3199;49.102;8.856;2023-12-29T16:04:22;10.80;99.90
6333;DHT22;3199;49.102;8.856;2023-12-29T16:06:48;10.70;99.90
6333;DHT22;3199;49.102;8.856;2023-12-29T16:09:14;10.70;99.90
6333;DHT22;3199;49.102;8.856;2023-12-29T16:11:40;10.60;99.90
6333;DHT22;3199;49.102;8.856;2023-12-29T16:14:05;10.60;99.90
6333;DHT22;3199;49.102;8.856;2023-12-29T16:16:31;10.50;99.90
6333;DHT22;3199;49.102;8.856;2023-12-29T16:18:57;10.40;99.90
6333;DHT22;3199;49.102;8.856;2023-12-29T16:21:23;10.40;99.90
6333;DHT22;3199;49.102;8.856;2023-12-29T16:23:49;10.30;99.90
6333;DHT22;3199;49.102;8.856;2023-12-29T16:26:15;10.20;99.90